Time;durP1;ratioP1;P1;durP2;ratioP2;P2;SDS_P1;SDS_P2;PMS_P1;PMS_P2;Temp;Humidity;BMP_temperature;BMP_pressure;BME280_temperature;BME280_humidity;BME280_pressure;Samples;Min_cycle;Max_cycle;Signal;HPM_P1;HPM_P2
2021/06/10 00:00:34;;;;;;;17.08;12.00;;;;;;;;;;1492801;39;20027;-62
2021/06/10 00:01:35;;;;;;;14.40;11.65;;;;;;;;;;1493080;39;20070;-62
2021/06/10 00:02:37;;;;;;;17.02;11.93;;;;;;;;;;1493020;39;20034;-62
2021/06/10 00:03:38;;;;;;;14.52;11.15;;;;;;;;;;1492857;39;20113;-62
2021/06/10 00:04:39;;;;;;;15.23;11.77;;;;;;;;;;1492804;39;20036;-62
2021/06/10 00:05:40;;;;;;;14.32;11.30;;;;;;;;;;1493028;39;20027;-60
2021/06/10 00:06:41;;;;;;;13.43;11.02;;;;;;;;;;1492322;39;20028;-62
2021/06/10 00:07:43;;;;;;;14.57;11.23;;;;;;;;;;1492382;39;20387;-62
2021/06/10 00:08:45;;;;;;;14.07;11.50;;;;;;;;;;1492974;39;20031;-61
2021/06/10 00:09:48;;;;;;;14.93;11.40;;;;;;;;;;1492987;39;20032;-62
2021/06/10 00:10:49;;;;;;;16.45;11.98;;;;;;;;;;1492861;39;20028;-62
2021/06/10 00:11:50;;;;;;;16.58;12.60;;;;;;;;;;1492826;39;20064;-61
2021/06/10 00:12:53;;;;;;;14.32;11.15;;;;;;;;;;1493034;39;20027;-62
2021/06/10 00:13:54;;;;;;;15.65;12.07;;;;;;;;;;1493025;39;20027;-61
2021/06/10 00:14:55;;;;;;;14.00;12.07;;;;;;;;;;1492829;39;20302;-62
2021/06/10 00:15:56;;;;;;;16.40;12.13;;;;;;;;;;1492823;39;20391;-61
2021/06/10 00:16:57;;;;;;;14.40;11.57;;;;;;;;;;1492848;39;20120;-60
2021/06/10 00:17:59;;;;;;;18.75;11.90;;;;;;;;;;1492946;39;20108;-60
2021/06/10 00:19:00;;;;;;;13.38;11.52;;;;;;;;;;1492980;39;20054;-62
2021/06/10 00:20:02;;;;;;;15.32;11.68;;;;;;;;;;1492927;39;20038;-62
2021/06/10 00:21:04;;;;;;;15.20;11.55;;;;;;;;;;1492792;39;20079;-62
2021/06/10 00:22:04;;;;;;;15.68;10.90;;;;;;;;;;1493061;39;20027;-62
2021/06/10 00:23:08;;;;;;;14.40;11.23;;;;;;;;;;1493050;39;20403;-62
2021/06/10 00:24:10;;;;;;;14.30;11.18;;;;;;;;;;1492782;39;20104;-62
2021/06/10 00:25:12;;;;;;;14.60;11.90;;;;;;;;;;1492781;39;20028;-61
2021/06/10 00:26:13;;;;;;;16.50;11.35;;;;;;;;;;1493021;39;20036;-62
2021/06/10 00:27:20;;;;;;;16.48;11.18;;;;;;;;;;1492874;39;20032;-61
2021/06/10 00:28:20;;;;;;;14.82;11.85;;;;;;;;;;1492984;39;20032;-60
2021/06/10 00:29:22;;;;;;;14.77;11.48;;;;;;;;;;1492974;39;20188;-60
2021/06/10 00:30:23;;;;;;;15.90;11.57;;;;;;;;;;1492770;39;20028;-61
2021/06/10 00:31:24;;;;;;;15.63;11.85;;;;;;;;;;1492837;39;20023;-61
2021/06/10 00:32:38;;;;;;;15.98;11.32;;;;;;;;;;1492823;39;20058;-61
2021/06/10 00:33:39;;;;;;;17.13;12.13;;;;;;;;;;1492912;39;20058;-62
2021/06/10 00:34:40;;;;;;;16.15;11.60;;;;;;;;;;1493007;39;20024;-62
2021/06/10 00:35:42;;;;;;;14.77;11.55;;;;;;;;;;1492954;39;20036;-61
2021/06/10 00:36:43;;;;;;;14.75;12.00;;;;;;;;;;1492769;39;20368;-62
2021/06/10 00:37:45;;;;;;;14.48;11.45;;;;;;;;;;1492736;39;20054;-60
2021/06/10 00:38:46;;;;;;;15.65;12.32;;;;;;;;;;1492792;39;20143;-61
2021/06/10 00:39:49;;;;;;;15.63;11.40;;;;;;;;;;1492517;39;20031;-62
2021/06/10 00:40:51;;;;;;;14.38;11.60;;;;;;;;;;1492522;39;20031;-62
2021/06/10 00:41:52;;;;;;;16.20;11.40;;;;;;;;;;1492721;39;20034;-62
2021/06/10 00:42:54;;;;;;;15.48;11.60;;;;;;;;;;1492760;39;20031;-62
2021/06/10 00:43:55;;;;;;;13.13;11.80;;;;;;;;;;1492735;39;20028;-61
2021/06/10 00:44:56;;;;;;;18.35;12.90;;;;;;;;;;1492714;39;20028;-62
2021/06/10 00:45:58;;;;;;;16.05;12.55;;;;;;;;;;1492707;39;20055;-62
2021/06/10 00:46:59;;;;;;;14.45;12.90;;;;;;;;;;1492711;39;20306;-62
2021/06/10 00:48:00;;;;;;;14.75;11.95;;;;;;;;;;1492902;39;20032;-62
2021/06/10 00:49:02;;;;;;;16.40;12.10;;;;;;;;;;1492635;39;20076;-61
2021/06/10 00:50:03;;;;;;;18.95;12.55;;;;;;;;;;1492902;39;20047;-62
2021/06/10 00:51:05;;;;;;;13.80;11.75;;;;;;;;;;1492753;39;20055;-62
2021/06/10 00:52:06;;;;;;;15.45;12.52;;;;;;;;;;1492818;39;20112;-62
2021/06/10 00:53:08;;;;;;;14.90;12.20;;;;;;;;;;1492805;39;20039;-61
2021/06/10 00:54:09;;;;;;;14.82;12.35;;;;;;;;;;1492880;39;20028;-61
2021/06/10 00:55:13;;;;;;;15.23;12.32;;;;;;;;;;1492872;39;20379;-61
2021/06/10 00:56:14;;;;;;;14.07;11.45;;;;;;;;;;1492718;39;20036;-60
2021/06/10 00:57:15;;;;;;;14.45;11.05;;;;;;;;;;1492700;39;20028;-60
2021/06/10 00:58:16;;;;;;;17.20;12.23;;;;;;;;;;1492581;39;20067;-61
2021/06/10 00:59:17;;;;;;;18.65;12.52;;;;;;;;;;1492869;39;20031;-60
2021/06/10 01:00:20;;;;;;;13.63;11.43;;;;;;;;;;1492660;39;20111;-62
2021/06/10 01:01:22;;;;;;;13.38;11.70;;;;;;;;;;1492850;39;20042;-60
2021/06/10 01:02:22;;;;;;;17.02;11.90;;;;;;;;;;1492846;39;20020;-61
2021/06/10 01:03:24;;;;;;;13.77;11.18;;;;;;;;;;1492880;39;20268;-62
2021/06/10 01:04:25;;;;;;;14.68;11.48;;;;;;;;;;1492852;39;20024;-61
2021/06/10 01:05:26;;;;;;;17.38;12.52;;;;;;;;;;1492650;39;20306;-60
2021/06/10 01:06:35;;;;;;;15.00;11.52;;;;;;;;;;1492932;39;20028;-61
2021/06/10 01:07:43;;;;;;;16.83;12.30;;;;;;;;;;1492847;39;20035;-61
2021/06/10 01:08:50;;;;;;;13.75;11.68;;;;;;;;;;1492664;39;20031;-60
2021/06/10 01:09:58;;;;;;;13.88;11.82;;;;;;;;;;1492873;39;20068;-62
2021/06/10 01:11:21;;;;;;;14.77;11.70;;;;;;;;;;1492654;39;20406;-62
2021/06/10 01:12:26;;;;;;;15.13;11.13;;;;;;;;;;1492865;39;20031;-62
2021/06/10 01:13:35;;;;;;;15.70;11.50;;;;;;;;;;1492716;39;20402;-62
2021/06/10 01:14:41;;;;;;;18.27;12.18;;;;;;;;;;1492922;39;20035;-61
2021/06/10 01:15:44;;;;;;;15.88;11.85;;;;;;;;;;1492807;39;20032;-61
2021/06/10 01:16:46;;;;;;;15.00;12.25;;;;;;;;;;1492227;39;20034;-60
2021/06/10 01:17:48;;;;;;;15.18;12.15;;;;;;;;;;1492256;39;20043;-62
2021/06/10 01:18:51;;;;;;;14.65;12.70;;;;;;;;;;1492810;39;20053;-62
2021/06/10 01:20:03;;;;;;;18.10;12.02;;;;;;;;;;1492634;39;20383;-61
2021/06/10 01:21:04;;;;;;;13.02;11.27;;;;;;;;;;1492842;39;20028;-62
2021/06/10 01:22:09;;;;;;;15.02;11.38;;;;;;;;;;1492202;39;20039;-62
2021/06/10 01:23:21;;;;;;;15.07;11.77;;;;;;;;;;1492166;39;20388;-62
2021/06/10 01:24:40;;;;;;;15.00;12.18;;;;;;;;;;1492764;39;20132;-62
2021/06/10 01:26:03;;;;;;;14.48;11.25;;;;;;;;;;1492811;39;20032;-61
2021/06/10 01:27:19;;;;;;;16.00;11.07;;;;;;;;;;1492799;39;20032;-62
2021/06/10 01:28:25;;;;;;;15.68;11.48;;;;;;;;;;1492583;39;20031;-61
2021/06/10 01:29:28;;;;;;;16.80;11.88;;;;;;;;;;1492650;39;20132;-61
2021/06/10 01:30:32;;;;;;;16.35;12.50;;;;;;;;;;1492566;39;20410;-62
2021/06/10 01:31:34;;;;;;;15.00;11.60;;;;;;;;;;1492615;39;20031;-60
2021/06/10 01:32:38;;;;;;;16.80;11.40;;;;;;;;;;1492775;39;20031;-62
2021/06/10 01:33:41;;;;;;;15.15;12.18;;;;;;;;;;1492532;39;20407;-62
2021/06/10 01:34:43;;;;;;;13.75;10.57;;;;;;;;;;1492532;39;20113;-61
2021/06/10 01:35:49;;;;;;;18.63;12.00;;;;;;;;;;1492576;39;20035;-62
2021/06/10 01:36:54;;;;;;;14.00;11.60;;;;;;;;;;1492595;39;20396;-62
2021/06/10 01:37:58;;;;;;;16.88;11.15;;;;;;;;;;1492642;39;20031;-62
2021/06/10 01:39:03;;;;;;;15.35;12.05;;;;;;;;;;1492595;39;20036;-61
2021/06/10 01:40:06;;;;;;;15.82;12.65;;;;;;;;;;1492780;39;20112;-62
2021/06/10 01:41:09;;;;;;;16.45;12.77;;;;;;;;;;1492746;39;20060;-62
2021/06/10 01:42:12;;;;;;;16.42;11.55;;;;;;;;;;1492730;39;20035;-60
2021/06/10 01:43:16;;;;;;;16.15;12.95;;;;;;;;;;1492727;39;20032;-62
2021/06/10 01:44:18;;;;;;;16.38;12.98;;;;;;;;;;1492709;39;20039;-62
2021/06/10 01:45:21;;;;;;;13.55;11.80;;;;;;;;;;1492732;39;20038;-61
2021/06/10 01:46:23;;;;;;;17.02;12.52;;;;;;;;;;1492554;39;20028;-62
2021/06/10 01:47:26;;;;;;;16.75;12.43;;;;;;;;;;1492627;39;20299;-60
2021/06/10 01:48:28;;;;;;;18.10;13.68;;;;;;;;;;1492465;39;20043;-62
2021/06/10 01:49:30;;;;;;;15.57;12.88;;;;;;;;;;1492558;39;20379;-60
2021/06/10 01:50:31;;;;;;;14.23;11.80;;;;;;;;;;1492703;39;20032;-62
2021/06/10 01:51:33;;;;;;;16.10;12.18;;;;;;;;;;1492873;39;20032;-61
2021/06/10 01:52:36;;;;;;;18.80;12.93;;;;;;;;;;1493164;39;20023;-60
2021/06/10 01:53:39;;;;;;;15.93;12.13;;;;;;;;;;1493363;39;20113;-62
2021/06/10 01:54:40;;;;;;;16.95;12.98;;;;;;;;;;1493172;39;20490;-60
2021/06/10 01:55:44;;;;;;;15.80;12.90;;;;;;;;;;1493180;39;20387;-61
2021/06/10 01:56:46;;;;;;;17.67;12.65;;;;;;;;;;1493208;39;20121;-62
2021/06/10 01:57:49;;;;;;;14.30;11.65;;;;;;;;;;1492720;39;20028;-62
2021/06/10 01:58:51;;;;;;;14.43;12.43;;;;;;;;;;1492616;39;20044;-61
2021/06/10 01:59:55;;;;;;;16.20;12.82;;;;;;;;;;1493382;39;20043;-61
2021/06/10 02:00:56;;;;;;;14.90;12.50;;;;;;;;;;1493140;39;20375;-62
2021/06/10 02:01:59;;;;;;;15.63;12.20;;;;;;;;;;1493241;39;20109;-60
2021/06/10 02:03:00;;;;;;;21.20;13.98;;;;;;;;;;1493346;39;20032;-62
2021/06/10 02:04:02;;;;;;;18.10;14.07;;;;;;;;;;1493344;39;20035;-62
2021/06/10 02:05:05;;;;;;;17.35;13.60;;;;;;;;;;1493222;39;20044;-60
2021/06/10 02:06:09;;;;;;;17.30;13.88;;;;;;;;;;1493388;39;20032;-62
2021/06/10 02:07:10;;;;;;;18.52;13.98;;;;;;;;;;1493413;39;20108;-61
2021/06/10 02:08:14;;;;;;;18.67;13.90;;;;;;;;;;1493232;39;20415;-61
2021/06/10 02:09:15;;;;;;;19.05;13.82;;;;;;;;;;1493223;39;20034;-60
2021/06/10 02:10:21;;;;;;;15.25;13.13;;;;;;;;;;1493173;39;20343;-60
2021/06/10 02:11:23;;;;;;;18.15;13.13;;;;;;;;;;1493215;39;20035;-61
2021/06/10 02:12:24;;;;;;;16.50;13.23;;;;;;;;;;1492855;39;20034;-62
2021/06/10 02:13:28;;;;;;;18.55;13.27;;;;;;;;;;1492879;39;20036;-62
2021/06/10 02:14:30;;;;;;;17.90;14.07;;;;;;;;;;1492729;39;20024;-61
2021/06/10 02:15:32;;;;;;;16.23;13.45;;;;;;;;;;1492654;39;20024;-62
2021/06/10 02:16:38;;;;;;;16.55;14.18;;;;;;;;;;1493321;39;20028;-61
2021/06/10 02:17:41;;;;;;;18.40;13.57;;;;;;;;;;1493327;39;20366;-61
2021/06/10 02:18:45;;;;;;;18.08;14.32;;;;;;;;;;1493268;39;20056;-61
2021/06/10 02:19:46;;;;;;;16.92;13.57;;;;;;;;;;1493113;39;20464;-62
2021/06/10 02:20:47;;;;;;;17.00;13.73;;;;;;;;;;1493305;39;20082;-62
2021/06/10 02:21:48;;;;;;;18.92;13.25;;;;;;;;;;1493311;39;20068;-61
2021/06/10 02:22:50;;;;;;;16.08;13.48;;;;;;;;;;1493391;39;20135;-62
2021/06/10 02:23:51;;;;;;;17.77;13.38;;;;;;;;;;1493328;39;20035;-63
2021/06/10 02:24:53;;;;;;;16.88;14.40;;;;;;;;;;1493098;39;20032;-61
2021/06/10 02:25:54;;;;;;;17.33;13.50;;;;;;;;;;1493186;39;20031;-60
2021/06/10 02:26:56;;;;;;;16.75;14.52;;;;;;;;;;1493323;39;20383;-62
2021/06/10 02:27:56;;;;;;;19.42;14.82;;;;;;;;;;1493186;39;20206;-62
2021/06/10 02:28:59;;;;;;;17.77;13.73;;;;;;;;;;1493085;39;20031;-60
2021/06/10 02:30:00;;;;;;;19.83;15.18;;;;;;;;;;1492583;39;20119;-62
2021/06/10 02:31:05;;;;;;;17.35;13.70;;;;;;;;;;1492842;39;20039;-61
2021/06/10 02:32:07;;;;;;;16.85;13.38;;;;;;;;;;1492550;39;20068;-62
2021/06/10 02:33:08;;;;;;;17.30;14.00;;;;;;;;;;1492657;39;20395;-61
2021/06/10 02:34:09;;;;;;;16.20;13.65;;;;;;;;;;1493210;39;20028;-62
2021/06/10 02:35:12;;;;;;;19.48;13.77;;;;;;;;;;1493277;39;20039;-62
2021/06/10 02:36:15;;;;;;;16.95;13.57;;;;;;;;;;1493352;39;20027;-62
2021/06/10 02:37:19;;;;;;;16.20;13.73;;;;;;;;;;1493109;39;20157;-61
2021/06/10 02:38:22;;;;;;;21.95;14.30;;;;;;;;;;1492989;39;20028;-61
2021/06/10 02:39:24;;;;;;;15.95;12.80;;;;;;;;;;1493381;39;20109;-62
2021/06/10 02:40:30;;;;;;;16.58;13.80;;;;;;;;;;1493090;39;20024;-62
2021/06/10 02:41:33;;;;;;;16.38;13.82;;;;;;;;;;1493255;39;20432;-62
2021/06/10 02:42:36;;;;;;;17.92;13.98;;;;;;;;;;1493240;39;20025;-62
2021/06/10 02:43:38;;;;;;;17.58;15.18;;;;;;;;;;1493078;39;20272;-62
2021/06/10 02:44:43;;;;;;;17.25;14.50;;;;;;;;;;1493244;39;20035;-62
2021/06/10 02:45:46;;;;;;;18.67;14.40;;;;;;;;;;1493113;39;20397;-62
2021/06/10 02:46:47;;;;;;;22.40;16.17;;;;;;;;;;1493067;39;20030;-62
2021/06/10 02:47:50;;;;;;;22.23;15.73;;;;;;;;;;1493214;39;20035;-61
2021/06/10 02:48:53;;;;;;;16.58;14.65;;;;;;;;;;1493021;39;20035;-61
2021/06/10 02:49:55;;;;;;;20.40;15.55;;;;;;;;;;1493077;39;20035;-62
2021/06/10 02:50:57;;;;;;;22.30;15.25;;;;;;;;;;1493262;39;20024;-62
2021/06/10 02:51:59;;;;;;;20.27;14.70;;;;;;;;;;1493114;39;20295;-62
2021/06/10 02:53:03;;;;;;;17.88;15.45;;;;;;;;;;1493213;39;20028;-62
2021/06/10 02:54:07;;;;;;;20.60;15.95;;;;;;;;;;1493340;39;20028;-62
2021/06/10 02:55:09;;;;;;;19.48;14.80;;;;;;;;;;1493330;39;20028;-61
2021/06/10 02:56:11;;;;;;;19.45;14.30;;;;;;;;;;1493030;39;20380;-62
2021/06/10 02:57:13;;;;;;;17.27;14.98;;;;;;;;;;1493128;39;20032;-62
2021/06/10 02:58:19;;;;;;;20.02;14.77;;;;;;;;;;1492877;39;20027;-61
2021/06/10 02:59:22;;;;;;;17.55;14.63;;;;;;;;;;1493070;39;20051;-62
2021/06/10 03:00:28;;;;;;;19.42;15.23;;;;;;;;;;1493001;39;20027;-62
2021/06/10 03:01:30;;;;;;;18.75;14.75;;;;;;;;;;1493032;39;20076;-62
2021/06/10 03:02:33;;;;;;;19.85;13.85;;;;;;;;;;1493007;39;20328;-62
2021/06/10 03:03:36;;;;;;;20.55;15.40;;;;;;;;;;1492535;39;20052;-60
2021/06/10 03:04:40;;;;;;;19.15;14.80;;;;;;;;;;1493042;39;20312;-62
2021/06/10 03:05:42;;;;;;;20.20;15.48;;;;;;;;;;1493190;39;20048;-61
2021/06/10 03:06:44;;;;;;;19.60;15.18;;;;;;;;;;1493212;39;20027;-62
2021/06/10 03:07:46;;;;;;;20.30;16.15;;;;;;;;;;1493216;39;20028;-61
2021/06/10 03:08:51;;;;;;;18.70;14.40;;;;;;;;;;1493023;39;20039;-60
2021/06/10 03:09:52;;;;;;;19.45;14.70;;;;;;;;;;1492969;39;20392;-62
2021/06/10 03:10:57;;;;;;;21.15;14.23;;;;;;;;;;1493066;39;20030;-62
2021/06/10 03:11:59;;;;;;;17.65;14.60;;;;;;;;;;1493167;39;20024;-62
2021/06/10 03:13:01;;;;;;;18.95;14.80;;;;;;;;;;1493268;39;20036;-60
2021/06/10 03:14:02;;;;;;;22.08;15.77;;;;;;;;;;1492969;39;20024;-61
2021/06/10 03:15:05;;;;;;;18.27;15.00;;;;;;;;;;1492946;39;20387;-62
2021/06/10 03:16:08;;;;;;;18.70;15.73;;;;;;;;;;1493157;39;20117;-60
2021/06/10 03:17:13;;;;;;;20.27;15.48;;;;;;;;;;1492929;39;20020;-62
2021/06/10 03:18:15;;;;;;;18.98;15.13;;;;;;;;;;1492758;39;20387;-62
2021/06/10 03:19:17;;;;;;;21.00;15.48;;;;;;;;;;1493150;39;20028;-60
2021/06/10 03:20:18;;;;;;;18.98;15.82;;;;;;;;;;1493125;39;20028;-60
2021/06/10 03:21:21;;;;;;;19.38;16.00;;;;;;;;;;1492983;39;20038;-60
2021/06/10 03:22:22;;;;;;;18.80;15.13;;;;;;;;;;1493126;39;20039;-60
2021/06/10 03:23:24;;;;;;;19.15;15.23;;;;;;;;;;1493176;39;20027;-60
2021/06/10 03:24:25;;;;;;;19.50;16.15;;;;;;;;;;1492942;39;20410;-61
2021/06/10 03:25:28;;;;;;;19.10;15.90;;;;;;;;;;1493225;39;20063;-62
2021/06/10 03:26:29;;;;;;;18.70;15.50;;;;;;;;;;1492936;39;20324;-62
2021/06/10 03:27:32;;;;;;;20.02;15.40;;;;;;;;;;1492994;39;20300;-60
2021/06/10 03:28:33;;;;;;;19.30;16.48;;;;;;;;;;1492977;39;20406;-61
2021/06/10 03:29:35;;;;;;;23.02;15.90;;;;;;;;;;1492919;39;20034;-62
2021/06/10 03:30:37;;;;;;;20.85;16.17;;;;;;;;;;1492912;39;20032;-60
2021/06/10 03:31:40;;;;;;;18.50;15.52;;;;;;;;;;1493234;39;20072;-62
2021/06/10 03:32:42;;;;;;;18.70;16.05;;;;;;;;;;1493149;39;20032;-61
2021/06/10 03:33:44;;;;;;;22.33;15.80;;;;;;;;;;1492930;39;20328;-62
2021/06/10 03:34:46;;;;;;;20.50;15.70;;;;;;;;;;1492953;39;20372;-62
2021/06/10 03:35:48;;;;;;;22.50;16.52;;;;;;;;;;1492954;39;20116;-62
2021/06/10 03:36:49;;;;;;;20.48;16.48;;;;;;;;;;1492913;39;20276;-62
2021/06/10 03:37:51;;;;;;;19.40;16.40;;;;;;;;;;1492933;39;20058;-60
2021/06/10 03:38:53;;;;;;;21.17;17.00;;;;;;;;;;1492967;39;20083;-61
2021/06/10 03:39:56;;;;;;;21.00;16.90;;;;;;;;;;1492914;39;20035;-62
2021/06/10 03:40:58;;;;;;;22.25;17.52;;;;;;;;;;1492923;39;20483;-60
2021/06/10 03:42:00;;;;;;;23.38;18.55;;;;;;;;;;1492882;39;20043;-61
2021/06/10 03:43:04;;;;;;;23.00;17.77;;;;;;;;;;1492973;39;20020;-61
2021/06/10 03:44:07;;;;;;;22.80;18.20;;;;;;;;;;1493052;39;20023;-60
2021/06/10 03:45:10;;;;;;;24.05;17.35;;;;;;;;;;1493099;39;20035;-62
2021/06/10 03:46:11;;;;;;;24.00;18.83;;;;;;;;;;1493099;39;20035;-61
2021/06/10 03:47:15;;;;;;;23.35;17.80;;;;;;;;;;1493100;39;20028;-60
2021/06/10 03:48:16;;;;;;;23.42;18.73;;;;;;;;;;1492798;39;20410;-62
2021/06/10 03:49:17;;;;;;;23.20;18.83;;;;;;;;;;1492906;39;20086;-60
2021/06/10 03:50:18;;;;;;;24.17;18.63;;;;;;;;;;1492872;39;20023;-60
2021/06/10 03:51:20;;;;;;;25.45;18.88;;;;;;;;;;1492873;39;20032;-62
2021/06/10 03:52:23;;;;;;;23.65;18.00;;;;;;;;;;1492868;39;20112;-62
2021/06/10 03:53:24;;;;;;;20.65;16.73;;;;;;;;;;1493042;39;20032;-60
2021/06/10 03:54:25;;;;;;;19.00;15.98;;;;;;;;;;1492903;39;20039;-62
2021/06/10 03:55:26;;;;;;;21.52;16.30;;;;;;;;;;1492855;39;20043;-62
2021/06/10 03:56:27;;;;;;;23.42;17.55;;;;;;;;;;1493060;39;20028;-60
2021/06/10 03:57:29;;;;;;;19.70;16.30;;;;;;;;;;1492867;39;20441;-60
2021/06/10 03:58:29;;;;;;;23.60;17.25;;;;;;;;;;1492918;39;20081;-60
2021/06/10 03:59:31;;;;;;;22.48;16.65;;;;;;;;;;1493051;39;20032;-62
2021/06/10 04:00:32;;;;;;;22.10;17.77;;;;;;;;;;1492878;39;20406;-62
2021/06/10 04:01:34;;;;;;;25.08;19.52;;;;;;;;;;1492851;39;20303;-62
2021/06/10 04:02:37;;;;;;;25.60;19.10;;;;;;;;;;1493090;39;20031;-61
2021/06/10 04:03:39;;;;;;;25.42;18.88;;;;;;;;;;1492961;39;20410;-62
2021/06/10 04:04:40;;;;;;;21.45;17.42;;;;;;;;;;1493009;39;20063;-62
2021/06/10 04:05:42;;;;;;;21.80;17.88;;;;;;;;;;1492978;39;20072;-60
2021/06/10 04:06:43;;;;;;;21.73;17.77;;;;;;;;;;1492975;39;20032;-61
2021/06/10 04:07:44;;;;;;;22.70;17.85;;;;;;;;;;1492816;39;20028;-61
2021/06/10 04:08:45;;;;;;;23.65;18.80;;;;;;;;;;1492777;39;20438;-61
2021/06/10 04:09:46;;;;;;;21.90;17.98;;;;;;;;;;1492841;39;20034;-62
2021/06/10 04:10:47;;;;;;;24.25;18.73;;;;;;;;;;1492821;39;20032;-61
2021/06/10 04:11:48;;;;;;;23.92;17.85;;;;;;;;;;1493047;39;20387;-62
2021/06/10 04:12:49;;;;;;;22.17;18.50;;;;;;;;;;1492817;39;20076;-61
2021/06/10 04:13:51;;;;;;;21.88;17.42;;;;;;;;;;1492440;39;20043;-60
2021/06/10 04:14:51;;;;;;;20.48;17.08;;;;;;;;;;1492157;39;20028;-62
2021/06/10 04:15:53;;;;;;;24.88;18.45;;;;;;;;;;1492841;39;20032;-60
2021/06/10 04:16:55;;;;;;;23.55;18.17;;;;;;;;;;1492849;39;20298;-60
2021/06/10 04:17:57;;;;;;;19.70;16.17;;;;;;;;;;1493065;39;20027;-63
2021/06/10 04:18:58;;;;;;;21.52;17.05;;;;;;;;;;1492865;39;20074;-61
2021/06/10 04:19:59;;;;;;;21.52;16.95;;;;;;;;;;1492988;39;20109;-62
2021/06/10 04:21:00;;;;;;;24.38;18.17;;;;;;;;;;1493048;39;20027;-62
2021/06/10 04:22:02;;;;;;;24.33;17.90;;;;;;;;;;1493087;39;20035;-61
2021/06/10 04:23:03;;;;;;;22.63;16.90;;;;;;;;;;1493018;39;20110;-60
2021/06/10 04:24:05;;;;;;;26.30;17.15;;;;;;;;;;1493057;39;20356;-62
2021/06/10 04:25:07;;;;;;;22.63;17.88;;;;;;;;;;1492789;39;20413;-60
2021/06/10 04:26:09;;;;;;;23.40;17.35;;;;;;;;;;1492973;39;20032;-60
2021/06/10 04:27:10;;;;;;;24.55;17.83;;;;;;;;;;1492968;39;20024;-61
2021/06/10 04:28:11;;;;;;;20.27;17.02;;;;;;;;;;1492848;39;20291;-60
2021/06/10 04:29:12;;;;;;;25.50;18.58;;;;;;;;;;1492857;39;20302;-61
2021/06/10 04:30:15;;;;;;;21.88;17.60;;;;;;;;;;1492880;39;20027;-60
2021/06/10 04:31:17;;;;;;;21.52;16.40;;;;;;;;;;1493099;39;20028;-62
2021/06/10 04:32:18;;;;;;;22.50;15.90;;;;;;;;;;1493069;39;20031;-61
2021/06/10 04:33:20;;;;;;;22.52;16.48;;;;;;;;;;1492781;39;20028;-60
2021/06/10 04:34:22;;;;;;;20.50;17.15;;;;;;;;;;1492841;39;20392;-60
2021/06/10 04:35:23;;;;;;;25.60;17.48;;;;;;;;;;1492947;39;20023;-60
2021/06/10 04:36:24;;;;;;;25.05;17.95;;;;;;;;;;1492911;39;20049;-60
2021/06/10 04:37:25;;;;;;;23.90;17.63;;;;;;;;;;1492755;39;20475;-60
2021/06/10 04:38:26;;;;;;;27.08;17.52;;;;;;;;;;1492692;39;20035;-61
2021/06/10 04:39:27;;;;;;;25.30;17.88;;;;;;;;;;1492836;39;20032;-62
2021/06/10 04:40:29;;;;;;;23.10;17.27;;;;;;;;;;1492900;39;20039;-61
2021/06/10 04:41:30;;;;;;;21.92;16.80;;;;;;;;;;1492946;39;20039;-62
2021/06/10 04:42:31;;;;;;;27.13;18.00;;;;;;;;;;1492798;39;20054;-60
2021/06/10 04:43:32;;;;;;;21.15;17.25;;;;;;;;;;1492870;39;20032;-62
2021/06/10 04:44:34;;;;;;;24.70;18.48;;;;;;;;;;1492960;39;20117;-60
2021/06/10 04:45:35;;;;;;;21.25;17.05;;;;;;;;;;1492818;39;20050;-61
2021/06/10 04:46:36;;;;;;;22.98;18.50;;;;;;;;;;1492716;39;20035;-62
2021/06/10 04:47:37;;;;;;;22.08;17.40;;;;;;;;;;1492686;39;20376;-60
2021/06/10 04:48:40;;;;;;;22.70;16.67;;;;;;;;;;1492649;39;20038;-61
2021/06/10 04:49:41;;;;;;;21.02;16.80;;;;;;;;;;1492749;39;20027;-62
2021/06/10 04:50:42;;;;;;;23.08;16.67;;;;;;;;;;1492795;39;20028;-62
2021/06/10 04:51:43;;;;;;;21.13;17.15;;;;;;;;;;1492686;39;20024;-61
2021/06/10 04:52:44;;;;;;;21.83;17.45;;;;;;;;;;1492736;39;20032;-62
2021/06/10 04:53:46;;;;;;;21.50;16.45;;;;;;;;;;1492740;39;20303;-60
2021/06/10 04:54:48;;;;;;;21.80;17.13;;;;;;;;;;1492916;39;20047;-62
2021/06/10 04:55:49;;;;;;;22.77;17.40;;;;;;;;;;1492728;39;20411;-61
2021/06/10 04:56:50;;;;;;;23.30;18.17;;;;;;;;;;1492910;39;20036;-62
2021/06/10 04:57:51;;;;;;;23.20;18.38;;;;;;;;;;1492882;39;20032;-60
2021/06/10 04:58:53;;;;;;;22.63;17.92;;;;;;;;;;1492789;39;20040;-60
2021/06/10 04:59:53;;;;;;;25.63;17.08;;;;;;;;;;1492756;39;20031;-60
2021/06/10 05:00:55;;;;;;;25.00;18.52;;;;;;;;;;1492716;39;20380;-62
2021/06/10 05:01:56;;;;;;;21.10;17.45;;;;;;;;;;1492888;39;20016;-62
2021/06/10 05:02:57;;;;;;;23.48;17.95;;;;;;;;;;1492706;39;20307;-62
2021/06/10 05:03:59;;;;;;;21.60;16.67;;;;;;;;;;1492681;39;20027;-62
2021/06/10 05:05:00;;;;;;;24.00;18.42;;;;;;;;;;1492877;39;20028;-62
2021/06/10 05:06:01;;;;;;;22.90;18.25;;;;;;;;;;1492828;39;20036;-62
2021/06/10 05:07:03;;;;;;;23.63;17.95;;;;;;;;;;1492801;39;20028;-62
2021/06/10 05:08:04;;;;;;;26.85;18.20;;;;;;;;;;1492651;39;20036;-62
2021/06/10 05:09:06;;;;;;;24.60;17.10;;;;;;;;;;1492628;39;20032;-62
2021/06/10 05:10:07;;;;;;;23.02;17.65;;;;;;;;;;1492669;39;20060;-61
2021/06/10 05:11:09;;;;;;;22.60;17.75;;;;;;;;;;1492595;39;20028;-62
2021/06/10 05:12:10;;;;;;;19.83;17.05;;;;;;;;;;1492627;39;20380;-62
2021/06/10 05:13:12;;;;;;;20.60;16.77;;;;;;;;;;1492655;39;20328;-62
2021/06/10 05:14:12;;;;;;;22.23;17.13;;;;;;;;;;1492743;39;20024;-62
2021/06/10 05:15:14;;;;;;;22.83;17.52;;;;;;;;;;1492589;39;20035;-62
2021/06/10 05:16:15;;;;;;;21.52;17.23;;;;;;;;;;1492801;39;20028;-62
2021/06/10 05:17:16;;;;;;;21.23;16.98;;;;;;;;;;1492829;39;20479;-62
2021/06/10 05:18:17;;;;;;;24.55;18.33;;;;;;;;;;1492432;39;20024;-63
2021/06/10 05:19:20;;;;;;;21.73;17.42;;;;;;;;;;1492700;39;20028;-62
2021/06/10 05:20:21;;;;;;;23.13;17.35;;;;;;;;;;1492736;39;20028;-62
2021/06/10 05:21:23;;;;;;;22.85;17.65;;;;;;;;;;1492666;39;20032;-62
2021/06/10 05:22:24;;;;;;;24.95;18.58;;;;;;;;;;1492849;39;20056;-62
2021/06/10 05:23:25;;;;;;;23.50;18.33;;;;;;;;;;1492641;39;20032;-62
2021/06/10 05:24:27;;;;;;;21.02;17.20;;;;;;;;;;1492612;39;20032;-62
2021/06/10 05:25:29;;;;;;;24.50;17.23;;;;;;;;;;1492614;39;20075;-62
2021/06/10 05:26:29;;;;;;;22.05;17.52;;;;;;;;;;1492808;39;20391;-61
2021/06/10 05:27:33;;;;;;;22.58;17.20;;;;;;;;;;1493555;39;20027;-62
2021/06/10 05:28:34;;;;;;;21.20;16.40;;;;;;;;;;1493365;39;20032;-61
2021/06/10 05:29:36;;;;;;;22.30;17.80;;;;;;;;;;1493581;39;20028;-61
2021/06/10 05:30:38;;;;;;;20.48;16.73;;;;;;;;;;1493229;39;20333;-62
2021/06/10 05:31:39;;;;;;;19.92;16.67;;;;;;;;;;1493457;39;20068;-62
2021/06/10 05:32:40;;;;;;;20.80;16.60;;;;;;;;;;1493243;39;20406;-62
2021/06/10 05:33:41;;;;;;;21.85;17.38;;;;;;;;;;1493225;39;20031;-62
2021/06/10 05:34:44;;;;;;;22.13;16.80;;;;;;;;;;1493238;39;20032;-61
2021/06/10 05:35:45;;;;;;;21.60;16.63;;;;;;;;;;1493230;39;20076;-62
2021/06/10 05:36:46;;;;;;;22.17;16.27;;;;;;;;;;1493271;39;20346;-62
2021/06/10 05:37:47;;;;;;;20.60;16.70;;;;;;;;;;1493285;39;20020;-62
2021/06/10 05:38:48;;;;;;;22.35;16.35;;;;;;;;;;1493270;39;20047;-61
2021/06/10 05:39:49;;;;;;;21.65;17.63;;;;;;;;;;1493227;39;20050;-61
2021/06/10 05:40:50;;;;;;;20.65;17.05;;;;;;;;;;1493286;39;20024;-61
2021/06/10 05:41:53;;;;;;;20.83;16.80;;;;;;;;;;1493228;39;20054;-61
2021/06/10 05:42:54;;;;;;;22.27;17.30;;;;;;;;;;1493204;39;20028;-62
2021/06/10 05:43:56;;;;;;;20.50;17.15;;;;;;;;;;1493225;39;20028;-62
2021/06/10 05:44:57;;;;;;;21.00;16.15;;;;;;;;;;1493189;39;20035;-62
2021/06/10 05:45:58;;;;;;;22.15;16.60;;;;;;;;;;1493228;39;20031;-62
2021/06/10 05:46:59;;;;;;;22.95;17.08;;;;;;;;;;1493181;39;20395;-62
2021/06/10 05:48:00;;;;;;;21.67;16.08;;;;;;;;;;1493238;39;20027;-62
2021/06/10 05:49:01;;;;;;;20.23;17.02;;;;;;;;;;1493329;39;20066;-61
2021/06/10 05:50:05;;;;;;;21.13;16.25;;;;;;;;;;1493363;39;20028;-62
2021/06/10 05:51:06;;;;;;;21.08;16.40;;;;;;;;;;1493435;39;20020;-62
2021/06/10 05:52:11;;;;;;;19.88;16.15;;;;;;;;;;1493433;39;20492;-62
2021/06/10 05:53:12;;;;;;;23.45;17.13;;;;;;;;;;1493415;39;20035;-62
2021/06/10 05:54:13;;;;;;;21.67;16.63;;;;;;;;;;1493467;39;20024;-62
2021/06/10 05:55:14;;;;;;;18.95;16.00;;;;;;;;;;1493183;39;20406;-62
2021/06/10 05:56:15;;;;;;;20.90;16.88;;;;;;;;;;1493274;39;20031;-62
2021/06/10 05:57:16;;;;;;;20.23;16.38;;;;;;;;;;1493188;39;20040;-62
2021/06/10 05:58:18;;;;;;;21.10;16.17;;;;;;;;;;1493110;39;20387;-62
2021/06/10 05:59:19;;;;;;;21.50;16.45;;;;;;;;;;1493161;39;20298;-62
2021/06/10 06:00:21;;;;;;;22.10;15.90;;;;;;;;;;1493189;39;20039;-62
2021/06/10 06:01:22;;;;;;;19.17;16.30;;;;;;;;;;1493376;39;20028;-62
2021/06/10 06:02:23;;;;;;;20.30;16.55;;;;;;;;;;1493158;39;20024;-63